Time;durP1;ratioP1;P1;durP2;ratioP2;P2;SDS_P1;SDS_P2;PMS_P1;PMS_P2;Temp;Humidity;BMP_temperature;BMP_pressure;BME280_temperature;BME280_humidity;BME280_pressure;Samples;Min_cycle;Max_cycle;Signal;HPM_P1;HPM_P2
2024/02/20 00:00:13;;;;;;;5.40;1.73;;;7.50;99.90;;;8.05;100.00;99111.88;4981249;28;20831;-79
2024/02/20 00:02:43;;;;;;;18.73;2.30;;;7.40;99.90;;;8.09;100.00;99108.81;4976065;28;20464;-79
2024/02/20 00:05:12;;;;;;;4.47;2.80;;;7.40;99.90;;;8.06;100.00;99103.91;4976267;28;20550;-79
2024/02/20 00:07:41;;;;;;;4.47;1.53;;;7.40;99.90;;;7.95;100.00;99116.28;4985882;28;20459;-79
2024/02/20 00:10:11;;;;;;;6.53;2.40;;;7.40;99.90;;;7.90;100.00;99113.31;4975577;28;21129;-79
2024/02/20 00:12:44;;;;;;;10.03;2.10;;;7.40;99.90;;;7.83;100.00;99112.25;4979880;28;20910;-79
2024/02/20 00:15:13;;;;;;;4.77;2.27;;;7.20;99.90;;;7.71;100.00;99108.16;4981184;28;20495;-79
2024/02/20 00:17:41;;;;;;;8.73;2.40;;;7.00;99.90;;;7.69;100.00;99110.09;4981454;28;20491;-79
2024/02/20 00:20:10;;;;;;;7.07;1.90;;;7.00;99.90;;;7.56;100.00;99121.66;4983544;28;20559;-79
2024/02/20 00:22:39;;;;;;;7.07;1.80;;;6.80;99.90;;;7.52;100.00;99109.06;4982358;28;20480;-80
2024/02/20 00:25:08;;;;;;;10.70;2.00;;;6.90;99.90;;;7.56;100.00;99116.47;4983446;28;20460;-80
2024/02/20 00:27:37;;;;;;;11.40;1.80;;;6.90;99.90;;;7.44;100.00;99122.78;4982297;28;20464;-79
2024/02/20 00:30:10;;;;;;;5.20;1.83;;;6.70;99.90;;;7.29;100.00;99120.75;4982290;28;20460;-78
2024/02/20 00:32:38;;;;;;;5.50;1.60;;;6.70;99.90;;;7.28;100.00;99130.34;4981751;28;21038;-79
2024/02/20 00:35:08;;;;;;;5.63;1.83;;;6.60;99.90;;;7.22;100.00;99136.09;4982345;28;20463;-80
2024/02/20 00:37:37;;;;;;;4.90;1.70;;;6.50;99.90;;;7.17;100.00;99137.47;4982222;28;20610;-79
2024/02/20 00:40:08;;;;;;;10.23;1.90;;;6.40;99.90;;;7.09;100.00;99135.56;4982442;28;20460;-79
2024/02/20 00:42:36;;;;;;;8.87;2.73;;;6.50;99.90;;;7.09;100.00;99128.59;4981200;28;20826;-79
2024/02/20 00:45:08;;;;;;;11.90;2.00;;;6.40;99.90;;;7.07;100.00;99134.88;4983282;28;20463;-79
2024/02/20 00:47:37;;;;;;;4.40;1.50;;;6.40;99.90;;;7.03;100.00;99133.50;4982557;28;20977;-79
2024/02/20 00:50:08;;;;;;;5.00;2.30;;;6.30;99.90;;;7.04;100.00;99135.16;4984594;28;20542;-79
2024/02/20 00:52:37;;;;;;;10.07;2.67;;;6.30;99.90;;;6.98;100.00;99135.69;4983175;28;20838;-79
2024/02/20 00:55:07;;;;;;;6.33;2.00;;;6.20;99.90;;;6.89;100.00;99136.53;4982585;28;20554;-79
2024/02/20 00:57:58;;;;;;;8.90;2.20;;;6.10;99.90;;;6.91;100.00;99137.19;4984512;28;20487;-79
2024/02/20 01:00:28;;;;;;;5.30;2.20;;;6.10;99.90;;;6.81;100.00;99133.78;4983275;28;20468;-79
2024/02/20 01:02:58;;;;;;;6.80;2.00;;;6.00;99.90;;;6.79;100.00;99133.94;4983962;28;20966;-79
2024/02/20 01:05:27;;;;;;;7.43;2.23;;;6.00;99.90;;;6.68;100.00;99138.44;4983844;28;20824;-79
2024/02/20 01:07:57;;;;;;;4.73;1.70;;;6.00;99.90;;;6.56;100.00;99138.53;4982297;28;20500;-79
2024/02/20 01:10:25;;;;;;;6.53;1.73;;;5.90;99.90;;;6.40;100.00;99135.66;4983094;28;20472;-79
2024/02/20 01:12:54;;;;;;;9.30;1.77;;;5.60;99.90;;;6.40;100.00;99143.44;4982538;28;20456;-79
2024/02/20 01:15:23;;;;;;;3.40;1.90;;;5.70;99.90;;;6.51;100.00;99135.53;4981451;28;20500;-79
2024/02/20 01:17:53;;;;;;;7.63;2.33;;;5.80;99.90;;;6.40;100.00;99140.84;4980845;28;20632;-79
2024/02/20 01:20:21;;;;;;;4.60;2.10;;;5.60;99.90;;;6.29;100.00;99146.16;4983691;28;20981;-79
2024/02/20 01:22:50;;;;;;;10.27;2.00;;;5.50;99.90;;;6.32;100.00;99150.25;4983353;28;20483;-79
2024/02/20 01:25:19;;;;;;;8.67;1.80;;;5.50;99.90;;;6.30;100.00;99150.41;4982447;28;20464;-79
2024/02/20 01:27:47;;;;;;;19.93;2.10;;;5.60;99.90;;;6.42;100.00;99148.53;4982768;28;20472;-79
2024/02/20 01:30:16;;;;;;;8.83;2.90;;;5.70;99.90;;;6.37;100.00;99143.72;4983044;28;20474;-80
2024/02/20 01:32:45;;;;;;;6.20;1.90;;;5.60;99.90;;;6.33;100.00;99149.28;4982859;28;20990;-79
2024/02/20 01:35:15;;;;;;;4.57;1.97;;;5.60;99.90;;;6.28;100.00;99147.09;4982523;28;21034;-78
2024/02/20 01:37:44;;;;;;;5.20;1.83;;;5.50;99.90;;;6.31;100.00;99153.81;4982619;28;20872;-79
2024/02/20 01:40:13;;;;;;;6.17;2.10;;;5.50;99.90;;;6.21;100.00;99152.97;4983771;28;20466;-80
2024/02/20 01:42:43;;;;;;;12.63;2.27;;;5.40;99.90;;;6.17;100.00;99149.81;4981514;28;20562;-79
2024/02/20 01:45:11;;;;;;;4.37;2.30;;;5.40;99.90;;;6.14;100.00;99142.28;4982617;28;20464;-79
2024/02/20 01:47:40;;;;;;;7.77;2.10;;;5.40;99.90;;;6.12;100.00;99145.94;4981482;28;20511;-79
2024/02/20 01:50:09;;;;;;;6.20;1.90;;;5.40;99.90;;;6.11;100.00;99150.31;4981118;28;20975;-79
2024/02/20 01:52:40;;;;;;;3.97;2.40;;;5.30;99.90;;;6.12;100.00;99149.38;4981305;28;20471;-79
2024/02/20 01:55:09;;;;;;;6.90;2.27;;;5.40;99.90;;;6.07;100.00;99147.16;4982005;28;20451;-79
2024/02/20 01:57:38;;;;;;;6.20;2.63;;;5.40;99.90;;;6.13;100.00;99153.63;4981560;28;21249;-79
2024/02/20 02:00:08;;;;;;;10.87;2.50;;;5.40;99.90;;;6.04;100.00;99157.81;4983119;28;20463;-78
2024/02/20 02:02:36;;;;;;;6.03;2.10;;;5.40;99.90;;;6.07;100.00;99151.56;4982300;28;20468;-78
2024/02/20 02:05:07;;;;;;;5.23;2.07;;;5.40;99.90;;;6.07;100.00;99154.16;4982383;28;20486;-79
2024/02/20 02:07:35;;;;;;;16.97;2.17;;;5.30;99.90;;;6.05;100.00;99150.84;4981684;28;20954;-79
2024/02/20 02:10:06;;;;;;;4.40;1.97;;;5.40;99.90;;;5.98;100.00;99153.16;4981756;28;20464;-79
2024/02/20 02:12:35;;;;;;;9.30;2.30;;;5.20;99.90;;;5.98;100.00;99154.91;4981014;28;20514;-79
2024/02/20 02:15:04;;;;;;;4.07;2.10;;;5.20;99.90;;;5.97;100.00;99145.50;4980059;28;20484;-79
2024/02/20 02:17:32;;;;;;;5.80;2.07;;;5.20;99.90;;;5.83;100.00;99145.81;4982499;28;20448;-79
2024/02/20 02:20:01;;;;;;;9.33;2.03;;;5.00;99.90;;;5.86;100.00;99145.59;4981488;28;20518;-79
2024/02/20 02:22:30;;;;;;;6.70;2.00;;;5.10;99.90;;;5.88;100.00;99146.28;4981384;28;20864;-79
2024/02/20 02:24:58;;;;;;;5.67;2.57;;;5.10;99.90;;;5.91;100.00;99149.44;4981919;28;20463;-79
2024/02/20 02:27:28;;;;;;;3.37;1.67;;;5.20;99.90;;;5.89;100.00;99140.16;4981749;28;20970;-79
2024/02/20 02:29:57;;;;;;;7.40;2.03;;;5.20;99.90;;;5.87;100.00;99145.44;4982293;28;20471;-79
2024/02/20 02:32:25;;;;;;;6.63;1.90;;;5.30;99.90;;;5.84;100.00;99143.09;4981021;28;20495;-79
2024/02/20 02:34:54;;;;;;;6.00;1.70;;;5.20;99.90;;;5.76;100.00;99139.50;4981173;28;20956;-79
2024/02/20 02:37:23;;;;;;;8.20;2.27;;;5.00;99.90;;;5.71;100.00;99147.69;4982062;28;20464;-79
2024/02/20 02:39:51;;;;;;;9.20;2.50;;;5.00;99.90;;;5.68;100.00;99153.13;4980267;28;20499;-79
2024/02/20 02:42:20;;;;;;;6.50;2.00;;;4.90;99.90;;;5.71;100.00;99163.25;4981930;28;20474;-79
2024/02/20 02:44:50;;;;;;;7.30;2.40;;;5.10;99.90;;;5.74;100.00;99169.94;4981839;28;20950;-79
2024/02/20 02:47:18;;;;;;;7.43;1.87;;;5.00;99.90;;;5.77;100.00;99172.28;4980120;28;20550;-79
2024/02/20 02:49:47;;;;;;;19.60;2.37;;;5.10;99.90;;;5.77;100.00;99161.91;4981540;28;20467;-79
2024/02/20 02:52:17;;;;;;;13.80;2.60;;;5.00;99.90;;;5.68;100.00;99178.25;4981266;28;20473;-79
2024/02/20 02:54:46;;;;;;;13.37;1.90;;;4.90;99.90;;;5.69;100.00;99169.53;4981691;28;20700;-79
2024/02/20 02:57:15;;;;;;;6.23;1.70;;;4.90;99.90;;;5.69;100.00;99174.72;4980198;28;20471;-79
2024/02/20 02:59:43;;;;;;;13.00;2.03;;;4.90;99.90;;;5.65;100.00;99184.53;4981257;28;21025;-80
2024/02/20 03:02:13;;;;;;;3.07;1.40;;;4.90;99.90;;;5.57;100.00;99177.38;4980552;28;20471;-79
2024/02/20 03:04:42;;;;;;;9.90;1.93;;;4.80;99.90;;;5.59;100.00;99178.06;4982253;28;20978;-79
2024/02/20 03:07:10;;;;;;;4.43;1.70;;;4.80;99.90;;;5.51;100.00;99180.47;4981322;28;20460;-79
2024/02/20 03:09:39;;;;;;;9.00;2.07;;;4.70;99.90;;;5.41;100.00;99189.16;4981307;28;20478;-80
2024/02/20 03:12:08;;;;;;;3.63;1.80;;;4.60;99.90;;;5.45;100.00;99185.31;4981882;28;20529;-79
2024/02/20 03:14:36;;;;;;;5.03;2.13;;;4.70;99.90;;;5.44;100.00;99187.13;4981564;28;20807;-79
2024/02/20 03:17:05;;;;;;;4.80;1.77;;;4.70;99.90;;;5.38;100.00;99187.59;4982592;28;20504;-80
2024/02/20 03:19:35;;;;;;;4.73;1.83;;;4.60;99.90;;;5.27;100.00;99187.69;4981688;28;20504;-80
2024/02/20 03:22:03;;;;;;;6.10;2.30;;;4.50;99.90;;;5.28;100.00;99191.06;4980676;28;20482;-79
2024/02/20 03:24:32;;;;;;;4.40;1.87;;;4.50;99.90;;;5.22;100.00;99197.59;4983570;28;20460;-79
2024/02/20 03:27:01;;;;;;;6.20;1.93;;;4.40;99.90;;;5.22;100.00;99194.19;4981946;28;20464;-79
2024/02/20 03:29:30;;;;;;;7.13;1.90;;;4.50;99.90;;;5.10;100.00;99197.78;4981263;28;20959;-79
2024/02/20 03:31:59;;;;;;;6.23;2.10;;;4.30;99.90;;;5.20;100.00;99196.91;4980470;28;20955;-79
2024/02/20 03:34:27;;;;;;;7.60;2.00;;;4.40;99.90;;;5.08;100.00;99206.50;4980898;28;20526;-79
2024/02/20 03:36:59;;;;;;;6.73;1.90;;;4.30;99.90;;;5.01;100.00;99204.50;4980425;28;20604;-79
2024/02/20 03:39:27;;;;;;;6.30;2.10;;;4.30;99.90;;;5.13;100.00;99211.31;4980588;28;20500;-79
2024/02/20 03:41:56;;;;;;;10.50;1.60;;;4.40;99.90;;;5.18;100.00;99214.34;4980200;28;21008;-79
2024/02/20 03:44:24;;;;;;;9.77;2.13;;;4.40;99.90;;;5.17;100.00;99212.72;4980449;28;20479;-79
2024/02/20 03:46:52;;;;;;;5.10;2.00;;;4.50;99.90;;;5.19;100.00;99216.00;4980660;28;20455;-79
2024/02/20 03:49:21;;;;;;;15.83;2.40;;;4.50;99.90;;;5.20;100.00;99214.22;4980494;28;20472;-79
2024/02/20 03:51:49;;;;;;;7.13;1.83;;;4.50;99.90;;;5.18;100.00;99216.94;4981466;28;20714;-79
2024/02/20 03:54:20;;;;;;;7.60;1.77;;;4.40;99.90;;;5.15;100.00;99235.34;4983395;28;20517;-80
2024/02/20 03:56:48;;;;;;;5.30;1.80;;;4.50;99.90;;;5.18;100.00;99223.88;4984243;28;20858;-80
2024/02/20 03:59:16;;;;;;;6.07;2.27;;;4.50;99.90;;;5.16;100.00;99218.00;4984797;28;20518;-79
2024/02/20 04:01:45;;;;;;;4.57;1.87;;;4.40;99.90;;;5.14;100.00;99223.31;4984856;28;20871;-79
2024/02/20 04:04:15;;;;;;;2.77;1.67;;;4.40;99.90;;;5.12;100.00;99226.97;4985672;28;20938;-80
2024/02/20 04:06:44;;;;;;;8.60;1.90;;;4.40;99.90;;;5.04;100.00;99230.19;4985563;28;20455;-79
2024/02/20 04:09:12;;;;;;;14.83;3.07;;;4.30;99.90;;;5.20;100.00;99230.63;4984750;28;20884;-79
2024/02/20 04:11:42;;;;;;;6.50;1.87;;;4.40;99.90;;;5.20;100.00;99229.78;4983886;28;21100;-79
2024/02/20 04:14:11;;;;;;;4.90;2.00;;;4.60;99.90;;;5.24;100.00;99234.56;4984749;28;21271;-79
2024/02/20 04:16:39;;;;;;;4.63;1.83;;;4.50;99.90;;;5.29;100.00;99229.03;4984869;28;20463;-79
2024/02/20 04:19:08;;;;;;;2.80;2.00;;;4.60;99.90;;;5.27;100.00;99231.75;4985408;28;21077;-79
2024/02/20 04:21:36;;;;;;;11.53;2.90;;;4.70;99.90;;;5.18;100.00;99234.25;4983096;28;20511;-79
2024/02/20 04:24:07;;;;;;;6.83;2.17;;;4.60;99.90;;;5.23;100.00;99230.38;4982957;28;21006;-80
2024/02/20 04:26:35;;;;;;;8.30;2.60;;;4.60;99.90;;;5.33;100.00;99233.84;4982468;28;20877;-79
2024/02/20 04:29:05;;;;;;;10.20;2.57;;;4.70;99.90;;;5.41;100.00;99239.25;4985399;28;20463;-79
2024/02/20 04:31:34;;;;;;;7.53;2.40;;;4.70;99.90;;;5.40;100.00;99242.78;4983435;28;20467;-80
2024/02/20 04:34:03;;;;;;;3.37;2.10;;;4.70;99.90;;;5.35;100.00;99244.91;4984259;28;20471;-79
2024/02/20 04:36:31;;;;;;;4.60;2.43;;;4.60;99.90;;;5.33;100.00;99248.59;4983676;28;20471;-79
2024/02/20 04:39:00;;;;;;;10.00;2.70;;;4.60;99.90;;;5.32;100.00;99247.75;4981552;28;20464;-79
2024/02/20 04:41:28;;;;;;;7.33;2.67;;;4.80;99.90;;;5.37;100.00;99253.41;4982389;28;20751;-79
2024/02/20 04:43:57;;;;;;;10.57;2.90;;;4.80;99.90;;;5.42;100.00;99253.84;4984156;28;20542;-80
2024/02/20 04:46:29;;;;;;;4.20;2.70;;;4.80;99.90;;;5.42;100.00;99251.25;4983345;28;20460;-79
2024/02/20 04:48:58;;;;;;;12.23;2.70;;;4.70;99.90;;;5.40;100.00;99252.31;4982382;28;20467;-79
2024/02/20 04:51:27;;;;;;;6.37;2.20;;;4.70;99.90;;;5.49;100.00;99257.59;4982626;28;20496;-79
2024/02/20 04:53:55;;;;;;;4.93;2.70;;;4.90;99.90;;;5.44;100.00;99251.97;4983557;28;21128;-79
2024/02/20 04:56:24;;;;;;;10.00;2.40;;;4.80;99.90;;;5.44;100.00;99253.72;4988082;28;20484;-78
2024/02/20 04:58:52;;;;;;;4.30;2.30;;;4.80;99.90;;;5.43;100.00;99265.88;4985527;28;20467;-80
2024/02/20 05:01:22;;;;;;;14.03;3.30;;;4.90;99.90;;;5.49;100.00;99252.41;4983940;28;20478;-79
2024/02/20 05:03:52;;;;;;;12.53;2.83;;;4.80;99.90;;;5.52;100.00;99252.13;4981964;28;20876;-79
2024/02/20 05:06:21;;;;;;;6.37;3.17;;;4.80;99.90;;;5.55;100.00;99254.47;4983144;28;20468;-80
2024/02/20 05:08:49;;;;;;;6.07;2.87;;;4.80;99.90;;;5.59;100.00;99253.28;4983736;28;20555;-79
2024/02/20 05:11:18;;;;;;;9.33;2.97;;;4.90;99.90;;;5.55;100.00;99262.25;4982639;28;21073;-79
2024/02/20 05:13:46;;;;;;;8.13;2.90;;;4.90;99.90;;;5.58;100.00;99256.84;4982846;28;20555;-79
2024/02/20 05:16:15;;;;;;;8.73;2.60;;;4.90;99.90;;;5.61;100.00;99255.78;4982445;28;20471;-79
2024/02/20 05:18:43;;;;;;;10.80;2.90;;;4.90;99.90;;;5.62;100.00;99259.19;4983266;28;20464;-79
2024/02/20 05:21:13;;;;;;;9.80;2.53;;;5.00;99.90;;;5.63;100.00;99258.22;4982495;28;20507;-80
2024/02/20 05:23:42;;;;;;;7.53;2.60;;;5.00;99.90;;;5.76;100.00;99259.69;4982847;28;20456;-79
2024/02/20 05:26:10;;;;;;;11.33;3.23;;;5.10;99.90;;;5.74;100.00;99250.38;4984802;28;20850;-79
2024/02/20 05:28:39;;;;;;;6.23;2.53;;;5.00;99.90;;;5.74;100.00;99246.03;4987040;28;20468;-79
2024/02/20 05:31:28;;;;;;;3.80;2.00;;;5.10;99.90;;;5.81;100.00;99241.97;4989008;28;20764;-79
2024/02/20 05:33:57;;;;;;;8.30;2.20;;;5.10;99.90;;;5.81;100.00;99256.72;4983368;28;20465;-79
2024/02/20 05:36:29;;;;;;;4.87;2.33;;;5.10;99.90;;;5.83;100.00;99260.81;4981671;28;20476;-79
2024/02/20 05:39:00;;;;;;;13.80;3.10;;;5.10;99.90;;;5.79;100.00;99259.44;4983059;28;20478;-79
2024/02/20 05:41:31;;;;;;;5.83;2.80;;;5.20;99.90;;;5.82;100.00;99259.19;4982718;28;20767;-79
2024/02/20 05:44:01;;;;;;;8.73;2.70;;;5.10;99.90;;;5.92;100.00;99254.09;4982338;28;20766;-79
2024/02/20 05:46:32;;;;;;;13.13;3.17;;;5.20;99.90;;;5.97;100.00;99259.72;4981996;28;20464;-79
2024/02/20 05:49:03;;;;;;;15.87;3.20;;;5.20;99.90;;;6.01;100.00;99268.88;4982826;28;20468;-79
2024/02/20 05:51:34;;;;;;;16.50;2.77;;;5.30;99.90;;;6.02;100.00;99265.34;4981476;28;21002;-79
2024/02/20 05:54:03;;;;;;;7.30;2.60;;;5.30;99.90;;;6.06;100.00;99267.56;4981460;28;21018;-79
2024/02/20 05:56:32;;;;;;;6.93;2.97;;;5.30;99.90;;;6.10;100.00;99262.94;4982025;28;20464;-79
2024/02/20 05:59:00;;;;;;;7.67;3.87;;;5.40;99.90;;;6.10;100.00;99268.13;4982183;28;20475;-79
2024/02/20 06:01:28;;;;;;;6.23;2.80;;;5.30;99.90;;;6.14;100.00;99264.34;4982522;28;20940;-79
2024/02/20 06:04:00;;;;;;;6.27;2.90;;;5.40;99.90;;;6.15;100.00;99265.97;4981281;28;20514;-79
2024/02/20 06:06:28;;;;;;;5.20;2.30;;;5.40;99.90;;;6.18;100.00;99265.69;4983385;28;20867;-79
2024/02/20 06:08:58;;;;;;;8.33;2.87;;;5.40;99.90;;;6.19;100.00;99267.34;4982794;28;20527;-79
2024/02/20 06:11:27;;;;;;;10.93;2.60;;;5.40;99.90;;;6.22;100.00;99266.25;4982581;28;20463;-79
2024/02/20 06:13:57;;;;;;;6.43;2.27;;;5.50;99.90;;;6.24;100.00;99270.41;4981159;28;21056;-79
2024/02/20 06:16:25;;;;;;;7.40;2.33;;;5.50;99.90;;;6.29;100.00;99268.22;4980851;28;20547;-79
2024/02/20 06:18:55;;;;;;;7.93;2.73;;;5.50;99.90;;;6.31;100.00;99271.53;4981827;28;20464;-80
2024/02/20 06:21:24;;;;;;;8.50;2.53;;;5.50;99.90;;;6.30;100.00;99275.06;4981516;28;20507;-80
2024/02/20 06:23:52;;;;;;;6.53;2.37;;;5.60;99.90;;;6.33;100.00;99269.59;4981898;28;20507;-79
2024/02/20 06:26:22;;;;;;;5.93;2.80;;;5.60;99.90;;;6.36;100.00;99278.91;4981468;28;20496;-79
2024/02/20 06:28:51;;;;;;;8.20;2.43;;;5.60;99.90;;;6.35;100.00;99282.47;4982274;28;20460;-79
2024/02/20 06:31:20;;;;;;;13.23;3.43;;;5.50;99.90;;;6.35;100.00;99283.28;4983134;28;20559;-79
2024/02/20 06:33:48;;;;;;;8.60;4.07;;;5.60;99.90;;;6.41;100.00;99290.56;4982133;28;20543;-79
2024/02/20 06:36:17;;;;;;;13.70;4.40;;;5.60;99.90;;;6.44;100.00;99287.72;4980389;28;20564;-80
2024/02/20 06:38:45;;;;;;;17.20;3.60;;;5.70;99.90;;;6.44;100.00;99282.50;4981843;28;20933;-79
2024/02/20 06:41:14;;;;;;;13.67;5.37;;;5.70;99.90;;;6.48;100.00;99289.09;4981586;28;20500;-80
2024/02/20 06:43:44;;;;;;;13.07;6.20;;;5.70;99.90;;;6.51;100.00;99283.63;4981564;28;20456;-79
2024/02/20 06:46:12;;;;;;;20.03;7.20;;;5.70;99.90;;;6.53;100.00;99280.88;4980150;28;20471;-79
2024/02/20 06:48:43;;;;;;;17.83;7.57;;;5.70;99.90;;;6.53;100.00;99284.31;4980492;28;20460;-79
2024/02/20 06:51:12;;;;;;;11.33;5.70;;;5.80;99.90;;;6.53;100.00;99275.69;4979781;28;20468;-79
2024/02/20 06:53:41;;;;;;;17.60;5.63;;;5.80;99.90;;;6.54;100.00;99279.94;4982123;28;20988;-79
2024/02/20 06:56:09;;;;;;;12.77;5.67;;;5.70;99.90;;;6.56;100.00;99283.22;4981249;28;20468;-80
2024/02/20 06:58:37;;;;;;;18.97;6.40;;;5.80;99.90;;;6.58;100.00;99287.34;4981207;28;20468;-80
2024/02/20 07:01:08;;;;;;;13.67;5.87;;;5.80;99.90;;;6.59;100.00;99295.97;4983366;28;20796;-80
2024/02/20 07:03:36;;;;;;;16.83;6.30;;;5.80;99.90;;;6.62;100.00;99293.13;4983291;28;20603;-80
2024/02/20 07:06:05;;;;;;;16.97;6.00;;;5.80;99.90;;;6.65;100.00;99284.22;4980389;28;20554;-79
2024/02/20 07:08:34;;;;;;;10.30;4.57;;;5.90;99.90;;;6.72;100.00;99290.53;4981661;28;20455;-80
2024/02/20 07:11:04;;;;;;;16.57;5.57;;;5.90;99.90;;;6.75;100.00;99301.50;4982976;28;20452;-79
2024/02/20 07:13:35;;;;;;;11.90;4.83;;;6.00;99.90;;;6.80;100.00;99298.50;4979622;28;20471;-79
2024/02/20 07:16:05;;;;;;;10.10;4.70;;;6.00;99.90;;;6.81;100.00;99300.13;4980824;28;20494;-80
2024/02/20 07:18:35;;;;;;;12.57;5.47;;;6.10;99.90;;;6.83;100.00;99293.03;4981131;28;20466;-79
2024/02/20 07:21:05;;;;;;;10.97;5.23;;;6.00;99.90;;;6.85;100.00;99288.53;4981986;28;20499;-79
2024/02/20 07:23:33;;;;;;;11.93;4.07;;;6.10;99.90;;;6.87;100.00;99294.44;4980183;28;20466;-79
2024/02/20 07:26:01;;;;;;;9.63;4.37;;;6.10;99.90;;;6.91;100.00;99299.22;4982547;28;21013;-80
2024/02/20 07:28:31;;;;;;;8.70;4.13;;;6.10;99.90;;;6.97;100.00;99301.31;4985663;28;20464;-80
2024/02/20 07:30:59;;;;;;;7.97;3.70;;;6.20;99.90;;;7.01;100.00;99305.25;4986761;28;20459;-80
2024/02/20 07:33:28;;;;;;;13.60;4.60;;;6.20;99.90;;;7.04;100.00;99304.19;4985168;28;20534;-79
2024/02/20 07:36:07;;;;;;;9.00;4.03;;;6.20;99.90;;;7.04;100.00;99296.38;4985214;28;20526;-79
2024/02/20 07:38:36;;;;;;;16.83;4.20;;;6.20;99.90;;;7.05;100.00;99303.22;4985248;28;20518;-79
2024/02/20 07:41:04;;;;;;;9.07;4.40;;;6.30;99.90;;;7.05;100.00;99308.41;4984743;28;20523;-79
2024/02/20 07:43:33;;;;;;;16.80;4.37;;;6.30;99.90;;;7.06;100.00;99299.66;4984577;28;20473;-79
2024/02/20 07:46:05;;;;;;;15.87;4.97;;;6.30;99.90;;;7.08;100.00;99306.38;4984819;28;20547;-80
2024/02/20 07:48:34;;;;;;;23.07;5.00;;;6.30;99.90;;;7.07;100.00;99317.75;4983926;28;20673;-79
2024/02/20 07:51:09;;;;;;;17.53;4.37;;;6.30;99.90;;;7.08;100.00;99298.56;4983829;28;20467;-79
2024/02/20 07:53:38;;;;;;;9.30;4.80;;;6.40;99.90;;;7.13;100.00;99305.97;4985037;28;20464;-79
2024/02/20 07:56:08;;;;;;;9.03;3.80;;;6.40;99.90;;;7.18;100.00;99311.63;4984102;28;20475;-79
2024/02/20 07:58:38;;;;;;;11.33;4.50;;;6.40;99.90;;;7.19;100.00;99310.63;4984782;28;20473;-80
2024/02/20 08:01:12;;;;;;;7.27;4.23;;;6.40;99.90;;;7.20;100.00;99307.09;4984972;28;20494;-80
2024/02/20 08:03:43;;;;;;;13.07;4.60;;;6.30;99.90;;;7.25;100.00;99311.91;4983184;28;20855;-79
2024/02/20 08:06:13;;;;;;;12.53;4.00;;;6.40;99.90;;;7.27;100.00;99308.19;4984102;28;20459;-79
2024/02/20 08:08:42;;;;;;;8.83;4.00;;;6.50;99.90;;;7.29;100.00;99310.69;4984714;28;21089;-79
2024/02/20 08:11:10;;;;;;;6.20;4.00;;;6.50;99.90;;;7.30;100.00;99318.31;4984276;28;20471;-80
2024/02/20 08:13:42;;;;;;;14.73;4.03;;;6.60;99.90;;;7.35;100.00;99313.56;4983728;28;20475;-79
2024/02/20 08:16:12;;;;;;;10.20;3.53;;;6.60;99.90;;;7.36;100.00;99312.56;4984881;28;20977;-80
2024/02/20 08:18:40;;;;;;;13.50;4.50;;;6.60;99.90;;;7.39;100.00;99321.91;4984548;28;20460;-80
2024/02/20 08:21:10;;;;;;;14.30;4.53;;;6.80;99.90;;;7.43;100.00;99321.50;4984822;28;20573;-79
2024/02/20 08:23:42;;;;;;;9.43;3.47;;;6.70;99.90;;;7.47;100.00;99319.44;4984384;28;20467;-79
2024/02/20 08:26:10;;;;;;;13.93;4.53;;;6.70;99.90;;;7.52;100.00;99322.47;4983567;28;20472;-79
2024/02/20 08:28:43;;;;;;;14.67;3.80;;;6.80;99.90;;;7.55;100.00;99327.41;4981129;28;20463;-79
2024/02/20 08:31:11;;;;;;;9.90;4.13;;;6.80;99.90;;;7.59;100.00;99324.41;4976821;28;20460;-79
2024/02/20 08:33:40;;;;;;;20.20;9.63;;;6.90;99.90;;;7.67;100.00;99330.69;4978660;28;20475;-85
2024/02/20 08:36:09;;;;;;;28.10;8.83;;;6.90;99.90;;;7.71;100.00;99332.03;4985033;28;20558;-80
2024/02/20 08:38:40;;;;;;;17.00;6.27;;;7.00;99.90;;;7.80;100.00;99336.44;4971783;28;21096;-79
2024/02/20 08:41:09;;;;;;;10.43;4.60;;;7.00;99.90;;;7.83;100.00;99329.19;4980522;28;20967;-80
2024/02/20 08:43:37;;;;;;;12.83;4.67;;;7.10;99.90;;;7.85;100.00;99329.03;4976266;28;20479;-80
2024/02/20 08:46:06;;;;;;;11.87;3.93;;;7.10;99.90;;;7.88;100.00;99326.19;4978151;28;20496;-79
2024/02/20 08:48:35;;;;;;;11.33;4.67;;;7.10;99.90;;;7.92;100.00;99319.72;4979036;28;20532;-80
2024/02/20 08:51:04;;;;;;;13.63;4.60;;;7.20;99.90;;;8.01;100.00;99324.09;4974998;28;20479;-79
2024/02/20 08:53:32;;;;;;;13.37;4.40;;;7.20;99.90;;;8.10;100.00;99333.69;4974978;28;21314;-79
2024/02/20 08:56:03;;;;;;;18.87;4.40;;;7.30;99.90;;;8.15;100.00;99328.88;4972915;28;20845;-80
2024/02/20 08:58:31;;;;;;;12.03;3.80;;;7.40;99.90;;;8.22;100.00;99327.34;4978140;28;20471;-80
2024/02/20 09:01:00;;;;;;;85.40;50.40;;;7.40;99.90;;;8.28;100.00;99339.00;4977754;28;20456;-80
2024/02/20 09:03:30;;;;;;;17.93;4.70;;;7.60;99.90;;;8.33;100.00;99345.44;4980653;28;20483;-76
2024/02/20 09:05:59;;;;;;;9.10;3.33;;;7.60;99.90;;;8.37;100.00;99346.81;4982387;28;21115;-75
2024/02/20 09:08:28;;;;;;;21.07;3.70;;;7.70;99.90;;;8.42;100.00;99338.59;4983973;28;20984;-74
2024/02/20 09:10:58;;;;;;;11.10;3.67;;;7.70;99.90;;;8.48;100.00;99338.84;4982768;28;21162;-75
2024/02/20 09:13:28;;;;;;;13.23;4.23;;;7.80;99.90;;;8.44;100.00;99352.28;4981415;28;20460;-75
2024/02/20 09:15:56;;;;;;;9.77;3.10;;;7.80;99.90;;;8.50;100.00;99349.13;4981343;28;20969;-75
2024/02/20 09:18:27;;;;;;;12.43;3.10;;;7.90;99.90;;;8.51;100.00;99369.81;4983425;28;20551;-75
2024/02/20 09:20:56;;;;;;;12.20;2.90;;;8.00;99.90;;;8.61;100.00;99374.22;4980329;28;21019;-79
2024/02/20 09:23:24;;;;;;;12.83;4.17;;;8.00;99.90;;;8.68;100.00;99376.09;4976932;28;20510;-75
2024/02/20 09:25:53;;;;;;;10.40;2.70;;;8.10;99.90;;;8.71;100.00;99385.44;4981028;28;20471;-75
2024/02/20 09:28:22;;;;;;;24.60;3.60;;;8.10;99.90;;;8.78;100.00;99391.72;4982902;28;20471;-74
2024/02/20 09:30:52;;;;;;;15.73;2.73;;;8.10;99.90;;;8.80;100.00;99388.00;4982544;28;20963;-76
2024/02/20 09:33:20;;;;;;;15.57;3.40;;;8.10;99.90;;;8.86;100.00;99390.03;4982615;28;20832;-76
2024/02/20 09:35:49;;;;;;;11.60;3.37;;;8.20;99.90;;;8.92;100.00;99391.25;4983985;28;20514;-76
2024/02/20 09:38:18;;;;;;;10.27;3.33;;;8.30;99.90;;;8.97;100.00;99387.25;4982456;28;20514;-75
2024/02/20 09:40:49;;;;;;;10.70;3.20;;;8.30;99.90;;;9.00;100.00;99386.13;4982152;28;20535;-75
2024/02/20 09:43:19;;;;;;;12.43;3.50;;;8.40;99.90;;;9.00;100.00;99391.34;4982468;28;20878;-76
2024/02/20 09:45:52;;;;;;;8.80;2.43;;;8.40;99.90;;;9.05;100.00;99389.16;4983775;28;20464;-75
2024/02/20 09:48:22;;;;;;;12.83;3.33;;;8.30;99.90;;;9.09;100.00;99391.31;4983827;28;20960;-75
2024/02/20 09:50:54;;;;;;;8.20;3.00;;;8.40;99.90;;;9.07;100.00;99388.03;4981758;28;20850;-76
2024/02/20 09:53:23;;;;;;;6.10;2.47;;;8.40;99.90;;;9.14;100.00;99401.31;4982390;28;20886;-75
2024/02/20 09:55:55;;;;;;;11.47;3.60;;;8.50;99.90;;;9.16;100.00;99402.00;4982437;28;22189;-74
2024/02/20 09:58:24;;;;;;;10.83;3.27;;;8.50;99.90;;;9.20;100.00;99398.13;4982145;28;20463;-75
2024/02/20 10:00:58;;;;;;;6.53;2.80;;;8.60;99.90;;;9.19;100.00;99398.28;4981640;28;20562;-75
2024/02/20 10:03:30;;;;;;;10.23;3.00;;;8.50;99.90;;;9.21;100.00;99405.00;4981438;28;20499;-76
2024/02/20 10:05:59;;;;;;;11.20;3.73;;;8.50;99.90;;;9.23;100.00;99407.47;4982447;28;21083;-75
2024/02/20 10:08:28;;;;;;;13.27;4.40;;;8.50;99.90;;;9.22;100.00;99404.03;4985210;28;20842;-76
2024/02/20 10:10:58;;;;;;;11.17;2.87;;;8.60;99.90;;;9.21;100.00;99414.59;4982459;28;20467;-75
2024/02/20 10:13:26;;;;;;;10.77;3.70;;;8.50;99.90;;;9.23;100.00;99418.75;4978296;28;20522;-75
2024/02/20 10:16:04;;;;;;;17.00;7.73;;;8.50;99.90;;;9.24;100.00;99425.56;4975200;28;20482;-75
2024/02/20 10:18:58;;;;;;;7.90;2.83;;;8.50;99.90;;;9.28;100.00;99420.91;4979146;28;20570;-75
2024/02/20 10:21:28;;;;;;;9.03;3.43;;;8.60;99.90;;;9.25;100.00;99422.00;4981874;28;21018;-74
2024/02/20 10:24:05;;;;;;;15.03;5.40;;;8.50;99.90;;;9.26;100.00;99421.06;4981698;28;20492;-75
2024/02/20 10:26:35;;;;;;;14.83;3.53;;;8.50;99.90;;;9.26;100.00;99412.41;4982356;28;20479;-75
2024/02/20 10:29:06;;;;;;;12.87;4.30;;;8.50;99.90;;;9.20;100.00;99408.56;4981986;28;20464;-75
2024/02/20 10:31:36;;;;;;;16.20;4.07;;;8.40;99.90;;;9.20;100.00;99418.19;4983171;28;20468;-75